Time;durP1;ratioP1;P1;durP2;ratioP2;P2;SDS_P1;SDS_P2;PMS_P1;PMS_P2;Temp;Humidity;BMP_temperature;BMP_pressure;BME280_temperature;BME280_humidity;BME280_pressure;Samples;Min_cycle;Max_cycle;Signal;HPM_P1;HPM_P2
2021/12/28 00:03:42;;;;;;;22.77;12.00;;;;;;;3.54;84.87;98678.44;8523945;33;20563;-77
2021/12/28 00:08:47;;;;;;;22.30;12.68;;;;;;;3.34;85.17;98679.16;8528149;33;20159;-77
2021/12/28 00:13:52;;;;;;;18.97;12.00;;;;;;;3.32;85.15;98681.06;8527572;33;20419;-77
2021/12/28 00:18:57;;;;;;;24.77;12.45;;;;;;;3.32;85.54;98670.47;8520444;33;20557;-77
2021/12/28 00:24:02;;;;;;;22.42;11.70;;;;;;;3.35;85.41;98665.78;8520565;33;20195;-77
2021/12/28 00:29:05;;;;;;;21.17;13.18;;;;;;;3.52;85.99;98656.47;8524172;33;20307;-76
2021/12/28 00:34:09;;;;;;;23.40;12.10;;;;;;;3.62;85.67;98661.88;8532147;33;20417;-78
2021/12/28 00:39:14;;;;;;;20.98;10.95;;;;;;;3.74;85.42;98655.63;8546764;33;20979;-77
2021/12/28 00:44:18;;;;;;;20.90;11.00;;;;;;;3.87;85.51;98652.81;8545080;33;20490;-77
2021/12/28 00:49:21;;;;;;;21.48;12.73;;;;;;;3.90;84.99;98656.06;8544578;33;20714;-76
2021/12/28 00:54:25;;;;;;;20.00;11.13;;;;;;;3.90;84.92;98649.91;8547374;33;20240;-77
2021/12/28 00:59:28;;;;;;;21.90;10.60;;;;;;;3.99;84.43;98637.69;8548358;33;20413;-78
2021/12/28 01:04:32;;;;;;;17.38;9.60;;;;;;;4.02;84.92;98643.59;8553869;33;20502;-78
2021/12/28 01:09:36;;;;;;;16.40;10.13;;;;;;;4.18;84.22;98652.00;8549327;33;20145;-79
2021/12/28 01:14:39;;;;;;;11.40;7.63;;;;;;;4.34;84.30;98643.59;8535378;33;20542;-77
2021/12/28 01:19:43;;;;;;;12.13;6.70;;;;;;;4.36;84.67;98643.47;8549490;33;20547;-78
2021/12/28 01:24:47;;;;;;;12.18;7.75;;;;;;;4.35;84.75;98647.09;8545060;33;20176;-77
2021/12/28 01:29:50;;;;;;;10.38;6.18;;;;;;;4.30;85.78;98643.97;8537407;33;20188;-78
2021/12/28 01:34:53;;;;;;;12.43;6.70;;;;;;;4.27;86.42;98641.56;8544737;33;20508;-78
2021/12/28 01:40:01;;;;;;;11.27;7.03;;;;;;;4.37;86.49;98643.34;8543715;33;20405;-79
2021/12/28 01:45:06;;;;;;;10.43;6.38;;;;;;;4.44;86.46;98653.47;8541490;33;20555;-79
2021/12/28 01:50:11;;;;;;;12.98;8.38;;;;;;;4.32;86.14;98648.19;8544711;33;20451;-78
2021/12/28 01:55:16;;;;;;;18.17;10.65;;;;;;;4.05;86.29;98643.34;8545990;33;20532;-78
2021/12/28 02:00:20;;;;;;;18.45;10.93;;;;;;;3.81;86.52;98637.34;8544074;33;20426;-78
2021/12/28 02:05:23;;;;;;;18.55;11.45;;;;;;;3.68;86.78;98634.88;8544253;33;20137;-78
2021/12/28 02:10:28;;;;;;;18.05;10.77;;;;;;;3.41;87.42;98621.97;8544125;33;20456;-77
2021/12/28 02:15:32;;;;;;;22.15;12.18;;;;;;;3.34;87.45;98623.41;8543562;33;20409;-77
2021/12/28 02:20:38;;;;;;;20.00;13.00;;;;;;;3.23;87.62;98613.66;8543418;33;20443;-78
2021/12/28 02:25:44;;;;;;;21.45;11.30;;;;;;;3.26;88.02;98627.53;8542752;33;20456;-77
2021/12/28 02:30:51;;;;;;;20.50;11.68;;;;;;;3.36;87.93;98618.84;8545787;33;20817;-78
2021/12/28 02:35:58;;;;;;;21.20;11.05;;;;;;;3.31;88.23;98607.75;8547261;33;20848;-78
2021/12/28 02:41:03;;;;;;;22.52;12.40;;;;;;;3.44;88.26;98605.81;8553603;33;20438;-78
2021/12/28 02:46:09;;;;;;;22.00;12.52;;;;;;;3.48;88.13;98612.53;8549314;33;20970;-78
2021/12/28 02:51:17;;;;;;;17.65;11.63;;;;;;;3.48;88.05;98607.22;8560418;33;20443;-78
2021/12/28 02:56:21;;;;;;;24.15;10.68;;;;;;;3.48;87.90;98602.78;8552789;33;20214;-78
2021/12/28 03:01:28;;;;;;;20.30;11.98;;;;;;;3.40;87.94;98594.59;8547229;33;20925;-78
2021/12/28 03:06:34;;;;;;;21.33;12.52;;;;;;;3.27;87.93;98593.88;8559994;33;20653;-78
2021/12/28 03:11:37;;;;;;;21.73;13.00;;;;;;;3.22;88.23;98580.97;8548948;33;20429;-76
2021/12/28 03:16:40;;;;;;;26.92;12.45;;;;;;;3.19;87.57;98583.03;8535929;33;20140;-77
2021/12/28 03:21:46;;;;;;;23.95;12.35;;;;;;;3.10;87.72;98578.44;8537148;33;20423;-78
2021/12/28 03:26:53;;;;;;;22.90;11.35;;;;;;;3.13;87.88;98575.56;8554376;33;21118;-79
2021/12/28 03:32:01;;;;;;;18.25;11.20;;;;;;;3.09;88.15;98568.78;8554756;33;20173;-79
2021/12/28 03:37:06;;;;;;;20.70;11.35;;;;;;;3.07;88.11;98563.59;8554446;33;20159;-78
2021/12/28 03:42:09;;;;;;;20.60;11.43;;;;;;;2.97;87.86;98570.63;8553879;33;20129;-80
2021/12/28 03:47:12;;;;;;;19.98;10.75;;;;;;;2.95;87.74;98573.38;8553725;33;20420;-79
2021/12/28 03:52:17;;;;;;;18.92;10.43;;;;;;;2.89;87.87;98557.94;8554651;33;20404;-79
2021/12/28 03:57:24;;;;;;;18.45;10.45;;;;;;;2.83;87.68;98556.63;8528114;33;20425;-79
2021/12/28 04:02:30;;;;;;;20.80;11.23;;;;;;;2.75;87.94;98564.31;8550714;33;20513;-78
2021/12/28 04:07:35;;;;;;;21.15;11.23;;;;;;;2.73;88.00;98550.34;8550395;33;20536;-80
2021/12/28 04:12:41;;;;;;;20.90;11.07;;;;;;;2.67;87.96;98540.22;8548399;33;20456;-78
2021/12/28 04:17:44;;;;;;;21.92;12.20;;;;;;;2.65;87.90;98536.84;8548009;33;20137;-80
2021/12/28 04:22:49;;;;;;;20.52;11.60;;;;;;;2.65;88.09;98533.34;8546946;33;20196;-78
2021/12/28 04:27:52;;;;;;;22.55;11.98;;;;;;;2.66;88.13;98527.94;8545796;33;20152;-78
2021/12/28 04:32:56;;;;;;;23.73;12.02;;;;;;;2.76;88.36;98533.34;8547477;33;20153;-78
2021/12/28 04:38:03;;;;;;;22.10;12.45;;;;;;;2.78;88.54;98523.47;8551592;33;20426;-78
2021/12/28 04:43:13;;;;;;;25.52;13.65;;;;;;;2.69;88.71;98527.69;8552888;33;20316;-80
2021/12/28 04:48:16;;;;;;;25.70;12.75;;;;;;;2.83;88.29;98516.00;8551356;33;20137;-78
2021/12/28 04:53:21;;;;;;;25.08;12.65;;;;;;;2.76;87.91;98520.94;8552427;33;20637;-80
2021/12/28 04:58:24;;;;;;;24.50;12.35;;;;;;;2.81;87.84;98504.66;8551009;33;20143;-78
2021/12/28 05:03:27;;;;;;;23.17;11.20;;;;;;;2.75;87.83;98505.16;8528353;33;20160;-80
2021/12/28 05:08:32;;;;;;;23.40;12.13;;;;;;;2.74;88.18;98500.81;8551977;33;20508;-79
2021/12/28 05:18:54;;;;;;;27.02;12.57;;;;;;;2.84;87.87;98510.56;8527581;33;20477;-80
2021/12/28 05:24:01;;;;;;;22.50;12.88;;;;;;;2.87;87.93;98496.22;8504122;33;20249;-79
2021/12/28 05:29:05;;;;;;;24.45;12.85;;;;;;;2.95;87.80;98493.81;8522703;33;20490;-80
2021/12/28 05:34:16;;;;;;;26.55;12.77;;;;;;;2.99;87.94;98499.69;8519468;33;20149;-78
2021/12/28 05:39:22;;;;;;;24.85;11.23;;;;;;;3.05;87.96;98484.16;8541755;33;20676;-78
2021/12/28 05:44:25;;;;;;;22.17;11.73;;;;;;;3.14;87.82;98481.72;8542572;33;20425;-79
2021/12/28 05:49:29;;;;;;;22.17;11.13;;;;;;;3.19;87.88;98480.41;8523873;33;20423;-79
2021/12/28 05:54:39;;;;;;;22.10;12.50;;;;;;;3.28;87.69;98468.19;8548245;33;20136;-79
2021/12/28 05:59:42;;;;;;;23.40;10.95;;;;;;;3.34;87.99;98467.69;8546416;33;21040;-78
2021/12/28 06:04:45;;;;;;;19.50;10.48;;;;;;;3.37;87.76;98461.28;8542524;33;20424;-78
2021/12/28 06:09:52;;;;;;;23.63;11.18;;;;;;;3.43;88.09;98464.28;8540099;33;20145;-79
2021/12/28 06:14:56;;;;;;;20.30;10.85;;;;;;;3.53;87.82;98468.84;8542147;33;20425;-80
2021/12/28 06:19:59;;;;;;;23.65;11.30;;;;;;;3.47;87.69;98452.44;8542872;33;20177;-78
2021/12/28 06:25:07;;;;;;;26.58;12.57;;;;;;;3.55;88.01;98453.63;8544610;33;20137;-80
2021/12/28 06:30:11;;;;;;;24.00;11.80;;;;;;;3.66;87.66;98450.94;8543877;33;20149;-77
2021/12/28 06:35:14;;;;;;;28.42;12.50;;;;;;;3.69;87.79;98448.00;8515202;33;20493;-79
2021/12/28 06:40:19;;;;;;;22.98;11.75;;;;;;;3.73;87.79;98447.63;8518639;33;20406;-77
2021/12/28 06:45:24;;;;;;;24.30;12.00;;;;;;;3.79;87.56;98442.78;8540095;33;20418;-79
2021/12/28 06:50:27;;;;;;;25.02;11.57;;;;;;;3.79;87.66;98445.44;8543413;33;20263;-79
2021/12/28 06:55:32;;;;;;;24.92;11.23;;;;;;;3.86;87.57;98449.25;8546041;33;20453;-78
2021/12/28 07:01:01;;;;;;;22.65;12.00;;;;;;;3.94;87.46;98441.47;8537535;33;20152;-79
2021/12/28 07:06:06;;;;;;;24.05;11.27;;;;;;;3.95;87.34;98441.38;8538364;33;20423;-79
2021/12/28 07:11:13;;;;;;;25.15;11.57;;;;;;;3.94;87.64;98437.00;8514038;33;20140;-79
2021/12/28 07:16:17;;;;;;;25.98;12.77;;;;;;;3.99;87.63;98431.31;8537928;33;20419;-78
2021/12/28 07:21:21;;;;;;;25.27;11.98;;;;;;;4.03;87.49;98434.53;8542036;33;20415;-78
2021/12/28 07:26:43;;;;;;;21.98;10.65;;;;;;;4.07;87.25;98434.16;8547706;33;20208;-79
2021/12/28 07:31:47;;;;;;;22.73;12.20;;;;;;;4.04;87.28;98415.84;8522378;33;20413;-79
2021/12/28 07:36:51;;;;;;;24.13;11.07;;;;;;;4.02;87.24;98422.25;8547055;33;20422;-79
2021/12/28 07:41:55;;;;;;;26.67;10.30;;;;;;;4.09;87.44;98418.94;8546587;33;20412;-80
2021/12/28 07:46:59;;;;;;;23.60;10.88;;;;;;;4.21;87.24;98417.03;8518306;33;20998;-79
2021/12/28 07:52:05;;;;;;;30.90;12.73;;;;;;;4.36;87.20;98417.53;8517005;33;20223;-79
2021/12/28 07:57:11;;;;;;;21.13;11.05;;;;;;;4.37;87.61;98409.44;8492158;33;20952;-80
2021/12/28 08:02:14;;;;;;;23.15;10.50;;;;;;;4.47;87.18;98408.63;8539633;33;20409;-78
2021/12/28 08:07:18;;;;;;;22.60;9.68;;;;;;;4.36;87.13;98405.09;8541360;33;20160;-79
2021/12/28 08:12:40;;;;;;;17.80;9.63;;;;;;;4.50;86.77;98400.38;8549490;33;20448;-79
2021/12/28 08:17:51;;;;;;;17.48;10.10;;;;;;;4.44;87.13;98399.09;8553647;33;20409;-79
2021/12/28 08:22:57;;;;;;;19.25;9.95;;;;;;;4.47;87.36;98396.19;8527268;33;20415;-78
2021/12/28 08:28:04;;;;;;;20.38;10.73;;;;;;;4.51;86.58;98394.94;8547297;33;20541;-77
2021/12/28 08:33:10;;;;;;;27.27;12.07;;;;;;;4.47;86.40;98393.53;8519313;33;20239;-78
2021/12/28 08:38:14;;;;;;;20.23;10.20;;;;;;;4.42;86.64;98378.97;8522132;33;20430;-78
2021/12/28 08:43:19;;;;;;;20.42;10.30;;;;;;;4.51;86.60;98384.28;8546888;33;20156;-78
2021/12/28 08:48:23;;;;;;;26.85;10.65;;;;;;;4.49;87.02;98377.44;8523058;33;20265;-79
2021/12/28 08:53:27;;;;;;;22.25;10.32;;;;;;;4.98;88.28;98375.75;8546775;33;20634;-78
2021/12/28 08:58:31;;;;;;;21.10;10.70;;;;;;;5.83;85.67;98369.72;8543078;33;20145;-78
2021/12/28 09:03:35;;;;;;;23.25;9.98;;;;;;;6.29;82.70;98373.41;8518239;33;20430;-78
2021/12/28 09:08:38;;;;;;;19.05;10.43;;;;;;;5.91;81.85;98353.88;8543827;33;20141;-78
2021/12/28 09:13:42;;;;;;;20.85;10.82;;;;;;;5.92;84.09;98354.69;8541101;33;20177;-77
2021/12/28 09:18:46;;;;;;;18.58;9.07;;;;;;;6.91;82.77;98354.16;8538164;33;20423;-76
2021/12/28 09:23:49;;;;;;;16.92;9.15;;;;;;;7.32;79.25;98339.38;8541082;33;20908;-78
2021/12/28 09:29:14;;;;;;;13.90;7.68;;;;;;;7.86;77.71;98331.28;8525447;33;20435;-76
2021/12/28 09:34:17;;;;;;;11.57;6.45;;;;;;;8.51;75.85;98330.84;8530124;33;20218;-77
2021/12/28 09:39:31;;;;;;;11.88;6.90;;;;;;;8.73;74.74;98324.91;8533500;33;20491;-77
2021/12/28 09:44:36;;;;;;;15.93;6.70;;;;;;;8.99;74.13;98326.63;8529278;33;20413;-77
2021/12/28 09:49:39;;;;;;;8.88;5.80;;;;;;;8.26;74.87;98335.22;8526676;33;20442;-77
2021/12/28 09:54:43;;;;;;;11.65;5.85;;;;;;;8.24;76.64;98332.69;8523055;33;20468;-77
2021/12/28 09:59:48;;;;;;;9.70;5.70;;;;;;;8.13;75.41;98336.47;8522521;33;20423;-77
2021/12/28 10:04:58;;;;;;;8.93;5.85;;;;;;;7.89;76.93;98336.31;8526886;33;20434;-77
2021/12/28 10:10:06;;;;;;;6.13;4.20;;;;;;;7.54;77.79;98330.03;8526600;33;20690;-77
2021/12/28 10:15:16;;;;;;;5.65;3.45;;;;;;;7.33;77.58;98317.03;8527942;33;20209;-77
2021/12/28 10:20:28;;;;;;;7.72;3.33;;;;;;;7.36;77.58;98319.41;8525292;33;20411;-76
2021/12/28 10:25:37;;;;;;;6.18;3.50;;;;;;;7.44;77.79;98313.28;8521392;33;20141;-77
2021/12/28 10:30:44;;;;;;;9.20;5.18;;;;;;;7.13;78.34;98319.03;8521105;33;20622;-77
2021/12/28 10:35:50;;;;;;;10.40;6.10;;;;;;;6.98;78.69;98299.19;8523182;33;20160;-77
2021/12/28 10:40:56;;;;;;;5.65;3.22;;;;;;;7.12;79.09;98295.97;8530817;33;20510;-78
2021/12/28 10:46:04;;;;;;;6.65;3.55;;;;;;;7.32;78.47;98280.63;8531320;33;20506;-77
2021/12/28 10:51:12;;;;;;;6.78;2.97;;;;;;;7.75;77.97;98275.44;8530096;33;20152;-77
2021/12/28 10:56:15;;;;;;;3.97;2.95;;;;;;;8.02;76.68;98271.75;8506094;33;20219;-77
2021/12/28 11:01:23;;;;;;;4.07;2.30;;;;;;;8.21;76.18;98263.47;8543021;33;20246;-78
2021/12/28 11:06:30;;;;;;;3.22;2.60;;;;;;;8.23;75.92;98242.75;8537466;33;20588;-77
2021/12/28 11:11:35;;;;;;;3.10;2.33;;;;;;;9.20;72.98;98235.94;8529038;33;20364;-77
2021/12/28 11:16:49;;;;;;;3.72;2.63;;;;;;;8.48;73.96;98232.19;8533839;33;20402;-77
2021/12/28 11:21:55;;;;;;;3.40;2.50;;;;;;;8.15;76.33;98232.03;8529309;33;20450;-77
2021/12/28 11:26:59;;;;;;;3.63;3.00;;;;;;;7.80;77.11;98223.19;8524612;33;20173;-77
2021/12/28 11:32:21;;;;;;;3.30;2.20;;;;;;;7.79;77.52;98202.81;8525107;33;20686;-77
2021/12/28 11:37:27;;;;;;;4.45;1.65;;;;;;;7.50;77.95;98197.78;8526081;33;20211;-77
2021/12/28 11:42:31;;;;;;;3.95;2.20;;;;;;;7.70;77.75;98191.22;8523025;33;20456;-77
2021/12/28 11:47:36;;;;;;;2.97;1.83;;;;;;;7.67;78.00;98185.34;8526803;33;20426;-77
2021/12/28 11:52:44;;;;;;;2.30;2.10;;;;;;;7.87;77.48;98180.59;8525521;33;20193;-77
2021/12/28 11:57:53;;;;;;;3.85;2.17;;;;;;;8.04;77.12;98171.66;8520095;33;21036;-77
2021/12/28 12:02:59;;;;;;;4.80;2.30;;;;;;;8.09;77.26;98164.00;8521500;33;20464;-77
2021/12/28 12:08:09;;;;;;;2.40;1.85;;;;;;;8.54;76.60;98153.91;8521595;33;20145;-77
2021/12/28 12:13:23;;;;;;;1.70;1.60;;;;;;;8.89;74.68;98147.41;8520090;33;20511;-77
2021/12/28 12:18:31;;;;;;;2.25;1.98;;;;;;;8.98;74.04;98130.31;8514780;33;20464;-77
2021/12/28 12:23:44;;;;;;;2.30;2.10;;;;;;;8.96;74.14;98102.88;8519848;33;20909;-77
2021/12/28 12:28:54;;;;;;;2.55;2.00;;;;;;;8.97;74.28;98093.88;8524757;33;20469;-77
2021/12/28 12:34:06;;;;;;;2.33;1.75;;;;;;;9.13;74.04;98076.91;8533593;33;20156;-78
2021/12/28 12:39:11;;;;;;;2.15;1.90;;;;;;;9.18;73.11;98063.84;8547072;33;20415;-78
2021/12/28 12:44:19;;;;;;;1.75;1.45;;;;;;;8.95;73.25;98065.59;8523493;33;20520;-77
2021/12/28 12:49:32;;;;;;;1.38;1.27;;;;;;;8.51;74.50;98069.47;8533855;33;20218;-77
2021/12/28 12:54:46;;;;;;;3.25;1.73;;;;;;;8.30;76.65;98063.75;8524708;33;20465;-77
2021/12/28 13:00:00;;;;;;;2.60;1.23;;;;;;;7.59;81.10;98041.06;8533393;33;20578;-78
2021/12/28 13:05:19;;;;;;;1.35;1.25;;;;;;;7.46;83.45;98038.84;8541187;33;20426;-77
2021/12/28 13:10:26;;;;;;;1.85;1.70;;;;;;;7.26;85.52;98033.75;8540354;33;20439;-78
2021/12/28 13:15:35;;;;;;;2.25;1.50;;;;;;;7.09;86.71;98021.34;8541071;33;20411;-78
2021/12/28 13:21:00;;;;;;;4.00;2.03;;;;;;;6.96;87.85;98013.75;8539220;33;20424;-79
2021/12/28 13:26:03;;;;;;;2.78;2.13;;;;;;;6.99;88.62;98000.13;8540077;33;20516;-79
2021/12/28 13:31:06;;;;;;;3.72;3.00;;;;;;;6.96;88.93;97994.25;8541981;33;20137;-79
2021/12/28 13:36:10;;;;;;;4.30;2.83;;;;;;;6.96;89.12;97992.41;8542743;33;20622;-78
2021/12/28 13:41:15;;;;;;;2.60;2.40;;;;;;;6.94;89.14;97988.22;8546036;33;20422;-78
2021/12/28 13:46:18;;;;;;;1.70;1.60;;;;;;;6.92;89.12;97980.38;8546227;33;20533;-78
2021/12/28 13:51:24;;;;;;;2.35;1.92;;;;;;;6.89;89.23;97980.72;8542420;33;20639;-78
2021/12/28 13:56:34;;;;;;;2.72;1.75;;;;;;;6.89;89.06;97972.72;8542932;33;20419;-78
2021/12/28 14:01:41;;;;;;;3.85;2.20;;;;;;;6.80;89.36;97963.81;8544675;33;20444;-79
2021/12/28 14:06:49;;;;;;;3.22;2.03;;;;;;;6.76;89.41;97959.75;8544929;33;20444;-78
2021/12/28 14:11:54;;;;;;;3.20;2.08;;;;;;;6.66;90.10;97958.19;8535769;33;20425;-78
2021/12/28 14:17:01;;;;;;;3.65;2.08;;;;;;;6.68;90.15;97959.72;8531725;33;20448;-79
2021/12/28 14:22:15;;;;;;;4.43;2.50;;;;;;;6.50;90.41;97985.59;8499291;33;1072521;-79
2021/12/28 14:27:26;;;;;;;2.90;2.30;;;;;;;6.55;91.59;97973.47;8527126;33;20410;-78
2021/12/28 14:32:40;;;;;;;2.22;2.00;;;;;;;6.50;91.64;97974.94;8506203;33;20129;-78
2021/12/28 14:37:47;;;;;;;3.95;2.30;;;;;;;6.62;91.10;97984.38;8506867;33;20924;-79
2021/12/28 14:42:52;;;;;;;2.45;2.13;;;;;;;6.72;90.78;97990.44;8531694;33;20503;-79
2021/12/28 14:47:56;;;;;;;3.80;2.20;;;;;;;6.76;91.73;97986.44;8529359;33;20442;-78
2021/12/28 14:53:04;;;;;;;2.50;2.10;;;;;;;6.71;91.52;97985.25;8522482;33;20456;-77
2021/12/28 14:58:10;;;;;;;3.22;1.98;;;;;;;6.78;91.49;97984.47;8531802;33;20194;-79
2021/12/28 15:03:16;;;;;;;5.18;3.80;;;;;;;6.68;92.29;97982.91;8534155;33;20755;-77
2021/12/28 15:08:22;;;;;;;6.07;2.80;;;;;;;6.62;92.84;97998.53;8534715;33;20760;-79
2021/12/28 15:13:30;;;;;;;3.50;2.33;;;;;;;6.71;92.55;98009.25;8536165;33;20400;-78
2021/12/28 15:18:33;;;;;;;6.03;2.95;;;;;;;6.69;92.64;98019.22;8539785;33;20656;-79
2021/12/28 15:23:39;;;;;;;7.82;3.78;;;;;;;6.92;91.95;98016.91;8565268;28;20170;-76
2021/12/28 15:28:42;;;;;;;8.32;4.40;;;;;;;6.71;92.81;98015.41;8596748;33;20479;-77
2021/12/28 15:33:45;;;;;;;27.42;12.93;;;;;;;6.78;93.57;98024.47;8589188;33;20555;-76
2021/12/28 15:38:50;;;;;;;11.77;7.70;;;;;;;6.78;93.76;98031.66;8610903;33;20433;-77
2021/12/28 15:43:56;;;;;;;18.17;7.15;;;;;;;6.76;93.07;98053.13;8580429;33;20420;-78
2021/12/28 15:48:59;;;;;;;26.70;14.50;;;;;;;6.56;92.45;98049.84;8582688;33;20525;-78
2021/12/28 15:54:06;;;;;;;23.00;6.70;;;;;;;6.71;92.56;98038.59;8583278;33;20499;-78
2021/12/28 15:59:10;;;;;;;11.05;6.38;;;;;;;6.72;92.58;98045.59;8598461;33;20143;-79
2021/12/28 16:04:13;;;;;;;16.30;5.60;;;;;;;6.91;91.93;98039.25;8601299;33;20453;-77
2021/12/28 16:09:18;;;;;;;17.73;7.25;;;;;;;6.97;91.04;98047.47;8570562;33;20407;-77
2021/12/28 16:14:21;;;;;;;9.48;4.57;;;;;;;7.00;90.71;98049.81;8548684;33;20213;-77
2021/12/28 16:19:25;;;;;;;14.63;6.78;;;;;;;7.02;90.30;98053.19;8546779;33;21193;-77
2021/12/28 16:24:30;;;;;;;15.75;6.90;;;;;;;6.86;90.99;98071.72;8558236;33;20627;-76
2021/12/28 16:29:33;;;;;;;23.38;10.25;;;;;;;6.98;90.62;98097.19;8568721;33;20179;-78
2021/12/28 16:34:37;;;;;;;26.70;9.50;;;;;;;6.82;90.64;98083.69;8566904;33;20155;-75
2021/12/28 16:39:41;;;;;;;15.05;6.40;;;;;;;6.77;90.45;98096.66;8569472;33;20861;-79
2021/12/28 16:44:45;;;;;;;11.60;5.25;;;;;;;6.35;91.35;98090.16;8571539;33;20510;-79
2021/12/28 16:49:48;;;;;;;17.45;7.05;;;;;;;6.61;90.40;98094.72;8570753;33;20137;-79
2021/12/28 16:54:52;;;;;;;16.20;7.55;;;;;;;6.46;90.03;98094.44;8570541;33;20198;-77
2021/12/28 16:59:55;;;;;;;21.35;7.25;;;;;;;6.53;90.68;98092.81;8566292;33;20422;-78
2021/12/28 17:04:58;;;;;;;23.00;11.10;;;;;;;6.55;90.09;98095.31;8572406;33;20460;-78
2021/12/28 17:10:07;;;;;;;14.70;6.75;;;;;;;6.54;90.45;98104.34;8570817;33;21082;-79
2021/12/28 17:15:11;;;;;;;14.70;4.70;;;;;;;6.24;90.77;98111.72;8572542;33;20222;-78
2021/12/28 17:20:19;;;;;;;19.33;5.90;;;;;;;6.51;90.13;98126.81;8545229;33;20505;-77
2021/12/28 17:25:23;;;;;;;15.48;4.88;;;;;;;6.39;90.43;98130.72;8520713;33;20192;-77
2021/12/28 17:30:26;;;;;;;19.20;5.00;;;;;;;6.41;90.15;98139.38;8535372;33;20529;-77
2021/12/28 17:35:30;;;;;;;15.63;4.80;;;;;;;6.12;91.15;98150.28;8545425;33;20417;-77
2021/12/28 17:40:38;;;;;;;15.73;4.75;;;;;;;5.72;92.31;98154.13;8512722;33;20613;-77
2021/12/28 17:45:41;;;;;;;11.15;3.90;;;;;;;5.43;92.58;98157.78;8506365;33;20184;-77
2021/12/28 17:50:44;;;;;;;8.13;3.40;;;;;;;5.76;90.88;98165.31;8506138;33;20235;-78
2021/12/28 17:55:52;;;;;;;7.50;2.78;;;;;;;5.70;90.78;98164.09;8502824;33;22043;-77
2021/12/28 18:00:58;;;;;;;7.57;3.13;;;;;;;5.62;91.28;98159.53;8509177;33;20293;-78
2021/12/28 18:06:02;;;;;;;9.95;3.25;;;;;;;5.69;90.80;98159.75;8511467;33;20433;-79
2021/12/28 18:11:07;;;;;;;5.13;2.83;;;;;;;5.76;89.90;98162.66;8505248;33;20477;-77
2021/12/28 18:16:12;;;;;;;7.75;3.42;;;;;;;5.78;89.84;98169.50;8514239;33;20148;-78
2021/12/28 18:21:16;;;;;;;8.27;3.15;;;;;;;5.83;89.40;98174.41;8526982;33;20414;-79
2021/12/28 18:26:24;;;;;;;6.80;3.17;;;;;;;5.82;89.39;98173.56;8544414;33;20175;-78
2021/12/28 18:31:29;;;;;;;9.40;3.67;;;;;;;5.84;88.98;98171.59;8552807;33;20444;-78
2021/12/28 18:36:33;;;;;;;5.22;2.83;;;;;;;5.66;89.29;98168.03;8549642;33;20245;-79
2021/12/28 18:41:38;;;;;;;7.32;3.70;;;;;;;5.65;89.17;98180.53;8550764;33;20414;-76
2021/12/28 18:46:42;;;;;;;6.57;3.42;;;;;;;5.64;89.43;98188.66;8552956;33;20164;-78
2021/12/28 18:51:46;;;;;;;11.95;3.65;;;;;;;5.67;89.27;98191.00;8569195;33;20423;-77
2021/12/28 18:56:50;;;;;;;9.90;3.03;;;;;;;5.65;89.29;98215.16;8549216;33;20460;-78
2021/12/28 19:01:58;;;;;;;4.90;2.72;;;;;;;5.48;88.66;98230.03;8562679;33;20475;-78
2021/12/28 19:07:03;;;;;;;6.13;2.80;;;;;;;5.56;87.63;98224.00;8559991;33;20622;-78
2021/12/28 19:12:09;;;;;;;4.47;2.67;;;;;;;5.42;87.31;98230.63;8550896;33;20183;-78
2021/12/28 19:17:12;;;;;;;3.38;2.53;;;;;;;5.57;86.00;98233.69;8568612;33;20685;-78
2021/12/28 19:22:15;;;;;;;4.07;2.30;;;;;;;5.58;86.04;98245.16;8538958;33;20678;-77
2021/12/28 19:27:19;;;;;;;4.55;2.30;;;;;;;5.66;86.12;98263.94;8540070;33;20489;-77
2021/12/28 19:32:23;;;;;;;3.78;1.90;;;;;;;5.57;85.62;98259.44;8540268;33;20446;-78
2021/12/28 19:37:28;;;;;;;2.53;2.15;;;;;;;5.46;85.41;98263.97;8544565;33;20441;-78
2021/12/28 19:42:33;;;;;;;5.18;1.90;;;;;;;5.38;85.58;98271.00;8544358;33;20422;-76
2021/12/28 19:47:38;;;;;;;5.30;2.72;;;;;;;5.32;85.18;98275.06;8540824;33;20432;-77
2021/12/28 19:52:42;;;;;;;5.15;2.30;;;;;;;5.27;85.02;98285.31;8549188;33;20528;-79
2021/12/28 19:57:47;;;;;;;4.82;1.70;;;;;;;5.30;85.25;98301.00;8551059;33;20541;-78
2021/12/28 20:02:50;;;;;;;2.30;1.90;;;;;;;5.31;85.15;98299.16;8564458;33;20687;-77
2021/12/28 20:07:53;;;;;;;2.53;1.70;;;;;;;5.42;84.94;98299.00;8562462;33;21031;-79
2021/12/28 20:12:59;;;;;;;3.05;1.92;;;;;;;5.24;84.39;98299.75;8555415;33;20440;-78
2021/12/28 20:18:04;;;;;;;3.92;1.63;;;;;;;5.22;84.29;98306.19;8557136;33;20209;-78
2021/12/28 20:23:08;;;;;;;2.47;1.33;;;;;;;5.06;84.60;98306.75;8553224;33;20420;-77
2021/12/28 20:28:12;;;;;;;2.17;1.70;;;;;;;5.15;84.36;98310.38;8550711;33;20525;-78
2021/12/28 20:33:16;;;;;;;4.32;2.30;;;;;;;5.20;84.49;98322.28;8548391;33;20413;-77
2021/12/28 20:38:20;;;;;;;2.95;1.70;;;;;;;5.22;84.85;98341.63;8554137;33;20437;-77
2021/12/28 20:43:26;;;;;;;4.68;2.55;;;;;;;5.24;84.30;98352.97;8556347;33;21148;-77
2021/12/28 20:48:29;;;;;;;2.85;2.63;;;;;;;5.30;84.01;98362.22;8553206;33;20967;-78
2021/12/28 20:53:35;;;;;;;7.50;2.88;;;;;;;5.23;84.75;98377.88;8569386;33;20624;-78
2021/12/28 20:58:39;;;;;;;3.63;2.90;;;;;;;5.19;85.09;98381.81;8570283;33;20148;-76
2021/12/28 21:03:42;;;;;;;6.30;2.55;;;;;;;5.45;84.59;98382.09;8570286;33;20516;-76
2021/12/28 21:08:46;;;;;;;7.90;3.95;;;;;;;5.50;84.47;98385.19;8573130;33;20599;-77
2021/12/28 21:13:51;;;;;;;6.50;2.55;;;;;;;5.44;85.14;98384.91;8574663;33;20160;-77
2021/12/28 21:18:54;;;;;;;4.60;2.97;;;;;;;5.40;85.23;98395.03;8575703;33;20247;-78
2021/12/28 21:23:58;;;;;;;6.53;3.03;;;;;;;5.53;84.55;98412.53;8595511;33;20267;-77
2021/12/28 21:29:04;;;;;;;9.82;4.03;;;;;;;5.49;84.45;98419.97;8570729;33;20187;-76
2021/12/28 21:34:08;;;;;;;5.55;3.75;;;;;;;5.32;84.85;98447.25;8594394;33;20425;-78
2021/12/28 21:39:30;;;;;;;4.85;3.60;;;;;;;5.38;84.90;98458.22;8572190;33;20846;-77
2021/12/28 21:44:35;;;;;;;8.27;4.60;;;;;;;5.35;85.65;98462.94;8554032;33;20620;-77
2021/12/28 21:49:39;;;;;;;10.32;4.50;;;;;;;5.10;85.89;98478.47;8559595;33;20701;-77
2021/12/28 21:54:42;;;;;;;12.27;5.93;;;;;;;5.24;86.21;98485.22;8561681;33;20515;-78
2021/12/28 21:59:47;;;;;;;13.18;6.30;;;;;;;5.30;86.13;98484.69;8554731;33;20418;-78
2021/12/28 22:04:51;;;;;;;16.52;8.05;;;;;;;5.40;86.14;98474.91;8560924;33;21095;-77
2021/12/28 22:09:57;;;;;;;16.15;8.35;;;;;;;5.57;85.03;98469.84;8552363;33;20429;-79
2021/12/28 22:15:06;;;;;;;14.10;8.63;;;;;;;5.28;86.18;98481.31;8554339;33;20442;-78
2021/12/28 22:20:11;;;;;;;17.25;9.07;;;;;;;5.43;85.59;98511.03;8556490;33;20412;-78
2021/12/28 22:25:14;;;;;;;16.45;8.52;;;;;;;5.23;86.77;98518.97;8557275;33;20179;-77
2021/12/28 22:30:20;;;;;;;15.25;8.68;;;;;;;5.35;86.73;98513.53;8568261;33;20519;-78
2021/12/28 22:35:23;;;;;;;18.77;11.32;;;;;;;5.55;86.64;98493.13;8519027;33;20436;-77
2021/12/28 22:40:27;;;;;;;25.05;12.40;;;;;;;5.52;86.22;98504.91;8524465;33;21103;-78
2021/12/28 22:45:32;;;;;;;21.70;10.57;;;;;;;5.57;86.36;98523.97;8516162;33;20146;-77
2021/12/28 22:50:35;;;;;;;21.35;12.50;;;;;;;5.55;86.83;98525.91;8522025;33;20431;-77
2021/12/28 22:55:39;;;;;;;22.20;11.57;;;;;;;5.23;87.50;98550.06;8533206;33;21343;-78
2021/12/28 23:00:51;;;;;;;24.13;11.40;;;;;;;5.24;87.40;98546.47;8522901;33;20560;-77
2021/12/28 23:05:55;;;;;;;30.63;14.50;;;;;;;5.22;88.01;98551.06;8523939;33;20240;-77
2021/12/28 23:11:00;;;;;;;25.38;14.18;;;;;;;5.43;87.14;98567.81;8587421;33;20491;-77
2021/12/28 23:16:06;;;;;;;31.08;14.50;;;;;;;5.40;86.87;98565.44;8554133;33;20450;-77
2021/12/28 23:21:10;;;;;;;28.92;14.27;;;;;;;5.32;87.49;98573.25;8575342;33;20205;-78
2021/12/28 23:26:14;;;;;;;26.60;14.48;;;;;;;5.37;87.81;98586.97;8581723;33;20186;-78
2021/12/28 23:31:20;;;;;;;31.95;16.63;;;;;;;5.57;86.79;98595.00;8514970;33;20149;-78
2021/12/28 23:36:25;;;;;;;32.72;15.90;;;;;;;5.70;86.71;98608.94;8499914;33;20411;-80
2021/12/28 23:41:29;;;;;;;26.88;16.17;;;;;;;5.75;86.70;98600.53;8506288;33;20160;-79
2021/12/28 23:46:36;;;;;;;26.10;15.13;;;;;;;5.83;86.81;98627.34;8495225;33;20458;-79
2021/12/28 23:51:39;;;;;;;33.40;17.10;;;;;;;5.89;86.59;98627.63;8494183;33;20424;-79
2021/12/28 23:56:42;;;;;;;29.45;14.98;;;;;;;5.91;86.91;98628.34;8539773;33;20509;-79
